sensor_id;sensor_type;location;lat;lon;timestamp;temperature;humidity
61398;DHT22;47267;48.130;-2.040;2023-02-22T00:00:41;19.30;47.30
61398;DHT22;47267;48.130;-2.040;2023-02-22T00:03:13;19.30;47.40
61398;DHT22;47267;48.130;-2.040;2023-02-22T00:05:44;19.30;47.30
61398;DHT22;47267;48.130;-2.040;2023-02-22T00:08:15;19.30;47.40
61398;DHT22;47267;48.130;-2.040;2023-02-22T00:10:42;19.30;47.30
61398;DHT22;47267;48.130;-2.040;2023-02-22T00:13:10;19.30;47.30
61398;DHT22;47267;48.130;-2.040;2023-02-22T00:15:38;19.30;47.30
61398;DHT22;47267;48.130;-2.040;2023-02-22T00:18:08;19.30;47.30
61398;DHT22;47267;48.130;-2.040;2023-02-22T00:20:36;19.30;47.30
61398;DHT22;47267;48.130;-2.040;2023-02-22T00:23:04;19.20;47.30
61398;DHT22;47267;48.130;-2.040;2023-02-22T00:25:32;19.30;47.30
61398;DHT22;47267;48.130;-2.040;2023-02-22T00:27:58;19.20;47.30
61398;DHT22;47267;48.130;-2.040;2023-02-22T00:30:28;19.20;47.30
61398;DHT22;47267;48.130;-2.040;2023-02-22T00:32:55;19.20;47.30
61398;DHT22;47267;48.130;-2.040;2023-02-22T00:35:23;19.20;47.30
61398;DHT22;47267;48.130;-2.040;2023-02-22T00:37:56;19.20;47.30
61398;DHT22;47267;48.130;-2.040;2023-02-22T00:40:24;19.30;47.30
61398;DHT22;47267;48.130;-2.040;2023-02-22T00:42:51;19.20;47.30
61398;DHT22;47267;48.130;-2.040;2023-02-22T00:45:20;19.30;47.30
61398;DHT22;47267;48.130;-2.040;2023-02-22T00:47:46;19.20;47.30
61398;DHT22;47267;48.130;-2.040;2023-02-22T00:50:12;19.20;47.30
61398;DHT22;47267;48.130;-2.040;2023-02-22T00:52:38;19.20;47.20
61398;DHT22;47267;48.130;-2.040;2023-02-22T00:55:06;19.20;47.30
61398;DHT22;47267;48.130;-2.040;2023-02-22T00:57:32;19.20;47.30
61398;DHT22;47267;48.130;-2.040;2023-02-22T01:00:07;19.20;47.30
61398;DHT22;47267;48.130;-2.040;2023-02-22T01:02:41;19.20;47.30
61398;DHT22;47267;48.130;-2.040;2023-02-22T01:05:10;19.20;47.30
61398;DHT22;47267;48.130;-2.040;2023-02-22T01:07:40;19.20;47.30
61398;DHT22;47267;48.130;-2.040;2023-02-22T01:10:08;19.20;47.20
61398;DHT22;47267;48.130;-2.040;2023-02-22T01:12:34;19.20;47.30
61398;DHT22;47267;48.130;-2.040;2023-02-22T01:15:01;19.20;47.30
61398;DHT22;47267;48.130;-2.040;2023-02-22T01:17:28;19.20;47.30
61398;DHT22;47267;48.130;-2.040;2023-02-22T01:19:55;19.20;47.20
61398;DHT22;47267;48.130;-2.040;2023-02-22T01:22:21;19.20;47.20
61398;DHT22;47267;48.130;-2.040;2023-02-22T01:24:48;19.20;47.30
61398;DHT22;47267;48.130;-2.040;2023-02-22T01:27:14;19.20;47.20
61398;DHT22;47267;48.130;-2.040;2023-02-22T01:29:40;19.20;47.20
61398;DHT22;47267;48.130;-2.040;2023-02-22T01:32:07;19.20;47.20
61398;DHT22;47267;48.130;-2.040;2023-02-22T01:34:32;19.20;47.30
61398;DHT22;47267;48.130;-2.040;2023-02-22T01:36:59;19.20;47.20
61398;DHT22;47267;48.130;-2.040;2023-02-22T01:39:26;19.20;47.20
61398;DHT22;47267;48.130;-2.040;2023-02-22T01:41:51;19.20;47.30
61398;DHT22;47267;48.130;-2.040;2023-02-22T01:44:30;19.20;47.30
61398;DHT22;47267;48.130;-2.040;2023-02-22T01:46:59;19.20;47.30
61398;DHT22;47267;48.130;-2.040;2023-02-22T01:49:31;19.20;47.30
61398;DHT22;47267;48.130;-2.040;2023-02-22T01:52:01;19.20;47.30
61398;DHT22;47267;48.130;-2.040;2023-02-22T01:54:34;19.20;47.20
61398;DHT22;47267;48.130;-2.040;2023-02-22T01:57:14;19.20;47.20
61398;DHT22;47267;48.130;-2.040;2023-02-22T01:59:43;19.20;47.30
61398;DHT22;47267;48.130;-2.040;2023-02-22T02:02:11;19.20;47.30
61398;DHT22;47267;48.130;-2.040;2023-02-22T02:04:38;19.20;47.20
61398;DHT22;47267;48.130;-2.040;2023-02-22T02:07:08;19.20;47.20
61398;DHT22;47267;48.130;-2.040;2023-02-22T02:09:43;19.20;47.30
61398;DHT22;47267;48.130;-2.040;2023-02-22T02:12:14;19.20;47.20
61398;DHT22;47267;48.130;-2.040;2023-02-22T02:14:41;19.20;47.20
61398;DHT22;47267;48.130;-2.040;2023-02-22T02:17:09;19.20;47.20
61398;DHT22;47267;48.130;-2.040;2023-02-22T02:28:00;19.20;47.20
61398;DHT22;47267;48.130;-2.040;2023-02-22T02:36:13;19.20;47.20
61398;DHT22;47267;48.130;-2.040;2023-02-22T02:38:45;19.20;47.20
61398;DHT22;47267;48.130;-2.040;2023-02-22T02:41:53;19.20;47.20
61398;DHT22;47267;48.130;-2.040;2023-02-22T02:44:19;19.20;47.30
61398;DHT22;47267;48.130;-2.040;2023-02-22T02:46:57;19.20;47.20
61398;DHT22;47267;48.130;-2.040;2023-02-22T02:49:47;19.20;47.20
61398;DHT22;47267;48.130;-2.040;2023-02-22T02:52:17;19.20;47.20
61398;DHT22;47267;48.130;-2.040;2023-02-22T02:54:44;19.20;47.30
61398;DHT22;47267;48.130;-2.040;2023-02-22T02:57:11;19.20;47.20
61398;DHT22;47267;48.130;-2.040;2023-02-22T02:59:37;19.20;47.20
61398;DHT22;47267;48.130;-2.040;2023-02-22T03:04:47;19.20;47.30
61398;DHT22;47267;48.130;-2.040;2023-02-22T03:07:37;19.20;47.20
61398;DHT22;47267;48.130;-2.040;2023-02-22T03:15:15;19.30;47.30
61398;DHT22;47267;48.130;-2.040;2023-02-22T03:18:07;19.30;47.20
61398;DHT22;47267;48.130;-2.040;2023-02-22T03:23:43;19.30;47.20
61398;DHT22;47267;48.130;-2.040;2023-02-22T03:26:27;19.20;47.20
61398;DHT22;47267;48.130;-2.040;2023-02-22T03:28:55;19.30;47.20
61398;DHT22;47267;48.130;-2.040;2023-02-22T03:31:39;19.30;47.30
61398;DHT22;47267;48.130;-2.040;2023-02-22T03:34:14;19.20;47.20
61398;DHT22;47267;48.130;-2.040;2023-02-22T03:36:49;19.30;47.30
61398;DHT22;47267;48.130;-2.040;2023-02-22T03:39:17;19.30;47.20
61398;DHT22;47267;48.130;-2.040;2023-02-22T03:41:47;19.30;47.20
61398;DHT22;47267;48.130;-2.040;2023-02-22T03:44:19;19.30;47.20
61398;DHT22;47267;48.130;-2.040;2023-02-22T03:46:47;19.30;47.20
61398;DHT22;47267;48.130;-2.040;2023-02-22T03:52:02;19.30;47.20
61398;DHT22;47267;48.130;-2.040;2023-02-22T03:54:29;19.20;47.20
61398;DHT22;47267;48.130;-2.040;2023-02-22T03:57:47;19.20;47.20
61398;DHT22;47267;48.130;-2.040;2023-02-22T03:59:52;19.30;47.20
61398;DHT22;47267;48.130;-2.040;2023-02-22T04:02:17;19.20;47.20
61398;DHT22;47267;48.130;-2.040;2023-02-22T04:04:47;19.20;47.20
61398;DHT22;47267;48.130;-2.040;2023-02-22T04:07:12;19.30;47.20
61398;DHT22;47267;48.130;-2.040;2023-02-22T04:09:38;19.20;47.20
61398;DHT22;47267;48.130;-2.040;2023-02-22T04:12:04;19.20;47.20
61398;DHT22;47267;48.130;-2.040;2023-02-22T04:14:30;19.20;47.20
61398;DHT22;47267;48.130;-2.040;2023-02-22T04:16:56;19.30;47.20
61398;DHT22;47267;48.130;-2.040;2023-02-22T04:19:21;19.20;47.20
61398;DHT22;47267;48.130;-2.040;2023-02-22T04:21:47;19.20;47.20
61398;DHT22;47267;48.130;-2.040;2023-02-22T04:24:13;19.20;47.10
61398;DHT22;47267;48.130;-2.040;2023-02-22T04:26:39;19.20;47.20
61398;DHT22;47267;48.130;-2.040;2023-02-22T04:29:05;19.20;47.20
61398;DHT22;47267;48.130;-2.040;2023-02-22T04:31:31;19.20;47.20
61398;DHT22;47267;48.130;-2.040;2023-02-22T04:33:58;19.20;47.20
61398;DHT22;47267;48.130;-2.040;2023-02-22T04:36:24;19.20;47.20
61398;DHT22;47267;48.130;-2.040;2023-02-22T04:38:52;19.20;47.20
61398;DHT22;47267;48.130;-2.040;2023-02-22T04:41:19;19.20;47.20
61398;DHT22;47267;48.130;-2.040;2023-02-22T04:43:45;19.20;47.10
61398;DHT22;47267;48.130;-2.040;2023-02-22T04:46:12;19.20;47.20
61398;DHT22;47267;48.130;-2.040;2023-02-22T04:48:38;19.20;47.10
61398;DHT22;47267;48.130;-2.040;2023-02-22T04:51:04;19.20;47.20
61398;DHT22;47267;48.130;-2.040;2023-02-22T04:53:30;19.20;47.20
61398;DHT22;47267;48.130;-2.040;2023-02-22T04:55:56;19.20;47.20
61398;DHT22;47267;48.130;-2.040;2023-02-22T04:58:22;19.20;47.20
61398;DHT22;47267;48.130;-2.040;2023-02-22T05:00:48;19.20;47.20
61398;DHT22;47267;48.130;-2.040;2023-02-22T05:03:13;19.20;47.20
61398;DHT22;47267;48.130;-2.040;2023-02-22T05:05:39;19.20;47.20
61398;DHT22;47267;48.130;-2.040;2023-02-22T05:08:05;19.20;47.20
61398;DHT22;47267;48.130;-2.040;2023-02-22T05:10:30;19.20;47.20
61398;DHT22;47267;48.130;-2.040;2023-02-22T05:12:56;19.20;47.20
61398;DHT22;47267;48.130;-2.040;2023-02-22T05:15:22;19.20;47.10
61398;DHT22;47267;48.130;-2.040;2023-02-22T05:17:50;19.20;47.20
61398;DHT22;47267;48.130;-2.040;2023-02-22T05:20:34;19.20;47.20
61398;DHT22;47267;48.130;-2.040;2023-02-22T05:23:02;19.20;47.10
61398;DHT22;47267;48.130;-2.040;2023-02-22T05:25:29;19.20;47.40
61398;DHT22;47267;48.130;-2.040;2023-02-22T05:27:57;19.20;47.10
61398;DHT22;47267;48.130;-2.040;2023-02-22T05:30:27;19.20;47.10
61398;DHT22;47267;48.130;-2.040;2023-02-22T05:32:53;19.20;47.20
61398;DHT22;47267;48.130;-2.040;2023-02-22T05:35:22;19.20;47.20
61398;DHT22;47267;48.130;-2.040;2023-02-22T05:37:48;19.20;47.20
61398;DHT22;47267;48.130;-2.040;2023-02-22T05:40:17;19.20;47.20
61398;DHT22;47267;48.130;-2.040;2023-02-22T05:42:43;19.20;47.20
61398;DHT22;47267;48.130;-2.040;2023-02-22T05:45:12;19.20;47.20
61398;DHT22;47267;48.130;-2.040;2023-02-22T05:47:38;19.20;47.20
61398;DHT22;47267;48.130;-2.040;2023-02-22T05:50:04;19.20;47.20
61398;DHT22;47267;48.130;-2.040;2023-02-22T05:52:30;19.20;47.20
61398;DHT22;47267;48.130;-2.040;2023-02-22T05:54:56;19.20;47.20
61398;DHT22;47267;48.130;-2.040;2023-02-22T05:57:22;19.20;47.20
61398;DHT22;47267;48.130;-2.040;2023-02-22T05:59:47;19.20;47.20
61398;DHT22;47267;48.130;-2.040;2023-02-22T06:02:13;19.20;47.20
61398;DHT22;47267;48.130;-2.040;2023-02-22T06:04:39;19.20;47.20
61398;DHT22;47267;48.130;-2.040;2023-02-22T06:07:04;19.20;47.20
61398;DHT22;47267;48.130;-2.040;2023-02-22T06:09:31;19.20;47.20
61398;DHT22;47267;48.130;-2.040;2023-02-22T06:11:57;19.20;47.20
61398;DHT22;47267;48.130;-2.040;2023-02-22T06:14:22;19.20;47.10
61398;DHT22;47267;48.130;-2.040;2023-02-22T06:16:55;19.20;47.20
61398;DHT22;47267;48.130;-2.040;2023-02-22T06:19:22;19.20;47.20
61398;DHT22;47267;48.130;-2.040;2023-02-22T06:21:55;19.20;47.20
61398;DHT22;47267;48.130;-2.040;2023-02-22T06:24:22;19.20;47.20
61398;DHT22;47267;48.130;-2.040;2023-02-22T06:26:55;19.20;47.20
61398;DHT22;47267;48.130;-2.040;2023-02-22T06:29:23;19.20;47.20
61398;DHT22;47267;48.130;-2.040;2023-02-22T06:31:49;19.20;47.20
61398;DHT22;47267;48.130;-2.040;2023-02-22T06:34:15;19.20;47.20
61398;DHT22;47267;48.130;-2.040;2023-02-22T06:36:41;19.20;47.20
61398;DHT22;47267;48.130;-2.040;2023-02-22T06:39:08;19.30;47.20
61398;DHT22;47267;48.130;-2.040;2023-02-22T06:41:38;19.20;47.20
61398;DHT22;47267;48.130;-2.040;2023-02-22T06:44:04;19.20;47.20
61398;DHT22;47267;48.130;-2.040;2023-02-22T06:46:30;19.30;47.20
61398;DHT22;47267;48.130;-2.040;2023-02-22T06:48:56;19.20;47.20
61398;DHT22;47267;48.130;-2.040;2023-02-22T06:51:24;19.30;47.20
61398;DHT22;47267;48.130;-2.040;2023-02-22T06:53:50;19.30;47.20
61398;DHT22;47267;48.130;-2.040;2023-02-22T06:56:16;19.30;47.20
61398;DHT22;47267;48.130;-2.040;2023-02-22T06:58:42;19.20;47.20
61398;DHT22;47267;48.130;-2.040;2023-02-22T07:01:08;19.30;47.20
61398;DHT22;47267;48.130;-2.040;2023-02-22T07:03:34;19.30;47.20
61398;DHT22;47267;48.130;-2.040;2023-02-22T07:06:00;19.30;47.20
61398;DHT22;47267;48.130;-2.040;2023-02-22T07:08:27;19.30;47.20
61398;DHT22;47267;48.130;-2.040;2023-02-22T07:10:53;19.30;47.20
61398;DHT22;47267;48.130;-2.040;2023-02-22T07:13:19;19.30;47.20
61398;DHT22;47267;48.130;-2.040;2023-02-22T07:15:45;19.30;47.20
61398;DHT22;47267;48.130;-2.040;2023-02-22T07:18:10;19.30;47.20
61398;DHT22;47267;48.130;-2.040;2023-02-22T07:20:37;19.30;47.20
61398;DHT22;47267;48.130;-2.040;2023-02-22T07:23:04;19.30;47.30
61398;DHT22;47267;48.130;-2.040;2023-02-22T07:25:30;19.30;47.20
61398;DHT22;47267;48.130;-2.040;2023-02-22T07:27:55;19.30;47.20
61398;DHT22;47267;48.130;-2.040;2023-02-22T07:30:27;19.30;47.20
61398;DHT22;47267;48.130;-2.040;2023-02-22T07:33:01;19.30;47.20
61398;DHT22;47267;48.130;-2.040;2023-02-22T07:35:31;19.30;47.20
61398;DHT22;47267;48.130;-2.040;2023-02-22T07:37:57;19.30;47.30
61398;DHT22;47267;48.130;-2.040;2023-02-22T07:40:24;19.30;47.30
61398;DHT22;47267;48.130;-2.040;2023-02-22T07:43:02;19.30;47.30
61398;DHT22;47267;48.130;-2.040;2023-02-22T07:45:30;19.30;47.20
61398;DHT22;47267;48.130;-2.040;2023-02-22T07:47:57;19.30;47.20
61398;DHT22;47267;48.130;-2.040;2023-02-22T07:50:24;19.30;47.30
61398;DHT22;47267;48.130;-2.040;2023-02-22T07:52:53;19.30;47.20
61398;DHT22;47267;48.130;-2.040;2023-02-22T07:55:21;19.30;47.30
61398;DHT22;47267;48.130;-2.040;2023-02-22T07:57:48;19.30;47.20
61398;DHT22;47267;48.130;-2.040;2023-02-22T08:00:24;19.30;47.30
61398;DHT22;47267;48.130;-2.040;2023-02-22T08:02:50;19.30;47.20
61398;DHT22;47267;48.130;-2.040;2023-02-22T08:05:17;19.30;47.20
61398;DHT22;47267;48.130;-2.040;2023-02-22T08:07:43;19.40;47.30
61398;DHT22;47267;48.130;-2.040;2023-02-22T08:10:09;19.40;47.30
61398;DHT22;47267;48.130;-2.040;2023-02-22T08:12:36;19.40;47.30
61398;DHT22;47267;48.130;-2.040;2023-02-22T08:15:04;19.30;47.20
61398;DHT22;47267;48.130;-2.040;2023-02-22T08:17:30;19.40;47.30
61398;DHT22;47267;48.130;-2.040;2023-02-22T08:19:55;19.40;47.30
61398;DHT22;47267;48.130;-2.040;2023-02-22T08:22:22;19.40;47.30
61398;DHT22;47267;48.130;-2.040;2023-02-22T08:24:48;19.40;47.30
61398;DHT22;47267;48.130;-2.040;2023-02-22T08:27:28;19.40;47.30
61398;DHT22;47267;48.130;-2.040;2023-02-22T08:29:55;19.40;47.30
61398;DHT22;47267;48.130;-2.040;2023-02-22T08:32:21;19.40;47.30
61398;DHT22;47267;48.130;-2.040;2023-02-22T08:34:47;19.40;47.30
61398;DHT22;47267;48.130;-2.040;2023-02-22T08:37:14;19.30;47.20
61398;DHT22;47267;48.130;-2.040;2023-02-22T08:39:40;19.40;47.30
61398;DHT22;47267;48.130;-2.040;2023-02-22T08:42:06;19.40;47.30
61398;DHT22;47267;48.130;-2.040;2023-02-22T08:44:34;19.30;47.20
61398;DHT22;47267;48.130;-2.040;2023-02-22T08:47:00;19.40;47.30
61398;DHT22;47267;48.130;-2.040;2023-02-22T08:49:26;19.40;47.30
61398;DHT22;47267;48.130;-2.040;2023-02-22T08:51:52;19.40;47.30
61398;DHT22;47267;48.130;-2.040;2023-02-22T08:54:17;19.40;47.30
61398;DHT22;47267;48.130;-2.040;2023-02-22T08:56:43;19.40;47.30
61398;DHT22;47267;48.130;-2.040;2023-02-22T08:59:09;19.40;47.30
61398;DHT22;47267;48.130;-2.040;2023-02-22T09:01:35;19.40;47.30
61398;DHT22;47267;48.130;-2.040;2023-02-22T09:04:01;19.40;47.30
61398;DHT22;47267;48.130;-2.040;2023-02-22T09:06:28;19.40;47.30
61398;DHT22;47267;48.130;-2.040;2023-02-22T09:08:54;19.40;47.30
61398;DHT22;47267;48.130;-2.040;2023-02-22T09:11:19;19.40;47.30
61398;DHT22;47267;48.130;-2.040;2023-02-22T09:13:45;19.40;47.30
61398;DHT22;47267;48.130;-2.040;2023-02-22T09:16:11;19.40;47.30
61398;DHT22;47267;48.130;-2.040;2023-02-22T09:18:37;19.40;47.30
61398;DHT22;47267;48.130;-2.040;2023-02-22T09:21:06;19.40;47.30
61398;DHT22;47267;48.130;-2.040;2023-02-22T09:23:32;19.40;47.30
61398;DHT22;47267;48.130;-2.040;2023-02-22T09:25:59;19.40;47.20
61398;DHT22;47267;48.130;-2.040;2023-02-22T09:28:25;19.40;47.30
61398;DHT22;47267;48.130;-2.040;2023-02-22T09:30:54;19.40;47.20
61398;DHT22;47267;48.130;-2.040;2023-02-22T09:33:20;19.40;47.30
61398;DHT22;47267;48.130;-2.040;2023-02-22T09:35:48;19.40;47.30
61398;DHT22;47267;48.130;-2.040;2023-02-22T09:38:22;19.40;47.30
61398;DHT22;47267;48.130;-2.040;2023-02-22T09:40:52;19.40;47.20
61398;DHT22;47267;48.130;-2.040;2023-02-22T09:44:13;19.50;47.30
61398;DHT22;47267;48.130;-2.040;2023-02-22T09:52:02;19.50;47.30
61398;DHT22;47267;48.130;-2.040;2023-02-22T09:54:35;19.40;47.30
61398;DHT22;47267;48.130;-2.040;2023-02-22T09:57:09;19.50;47.30
61398;DHT22;47267;48.130;-2.040;2023-02-22T09:59:41;19.50;47.40
61398;DHT22;47267;48.130;-2.040;2023-02-22T10:05:18;19.50;47.30
61398;DHT22;47267;48.130;-2.040;2023-02-22T10:07:50;19.50;47.30
61398;DHT22;47267;48.130;-2.040;2023-02-22T10:10:18;19.40;47.30
61398;DHT22;47267;48.130;-2.040;2023-02-22T10:15:41;19.50;47.30
61398;DHT22;47267;48.130;-2.040;2023-02-22T10:21:08;19.50;47.30
61398;DHT22;47267;48.130;-2.040;2023-02-22T10:26:29;19.50;47.30
61398;DHT22;47267;48.130;-2.040;2023-02-22T10:29:09;19.50;47.30
61398;DHT22;47267;48.130;-2.040;2023-02-22T10:31:44;19.50;47.30
61398;DHT22;47267;48.130;-2.040;2023-02-22T10:34:15;19.50;47.30
61398;DHT22;47267;48.130;-2.040;2023-02-22T10:36:46;19.50;47.30
61398;DHT22;47267;48.130;-2.040;2023-02-22T10:39:27;19.50;47.30
61398;DHT22;47267;48.130;-2.040;2023-02-22T10:42:00;19.50;47.30
61398;DHT22;47267;48.130;-2.040;2023-02-22T10:44:35;19.50;47.30
61398;DHT22;47267;48.130;-2.040;2023-02-22T10:47:04;19.50;47.30
61398;DHT22;47267;48.130;-2.040;2023-02-22T10:49:39;19.50;47.30
61398;DHT22;47267;48.130;-2.040;2023-02-22T10:52:33;19.50;47.40
61398;DHT22;47267;48.130;-2.040;2023-02-22T10:55:00;19.50;47.30
61398;DHT22;47267;48.130;-2.040;2023-02-22T10:57:34;19.50;47.30
61398;DHT22;47267;48.130;-2.040;2023-02-22T11:00:21;19.50;47.30
61398;DHT22;47267;48.130;-2.040;2023-02-22T11:03:14;19.50;47.30
61398;DHT22;47267;48.130;-2.040;2023-02-22T11:05:41;19.50;47.30
61398;DHT22;47267;48.130;-2.040;2023-02-22T11:10:45;19.60;47.40
61398;DHT22;47267;48.130;-2.040;2023-02-22T11:13:31;19.50;47.30
61398;DHT22;47267;48.130;-2.040;2023-02-22T11:16:00;19.60;47.40
61398;DHT22;47267;48.130;-2.040;2023-02-22T11:18:35;19.50;47.30
61398;DHT22;47267;48.130;-2.040;2023-02-22T11:21:10;19.60;47.30
61398;DHT22;47267;48.130;-2.040;2023-02-22T11:23:39;19.60;47.40
61398;DHT22;47267;48.130;-2.040;2023-02-22T11:26:09;19.60;47.40
61398;DHT22;47267;48.130;-2.040;2023-02-22T11:28:36;19.60;47.40
61398;DHT22;47267;48.130;-2.040;2023-02-22T11:31:16;19.60;47.40
61398;DHT22;47267;48.130;-2.040;2023-02-22T11:33:52;19.60;47.40
61398;DHT22;47267;48.130;-2.040;2023-02-22T11:36:46;19.60;47.40
61398;DHT22;47267;48.130;-2.040;2023-02-22T11:39:28;19.60;47.40
61398;DHT22;47267;48.130;-2.040;2023-02-22T11:41:55;19.60;47.40
61398;DHT22;47267;48.130;-2.040;2023-02-22T11:46:50;19.60;47.40
61398;DHT22;47267;48.130;-2.040;2023-02-22T11:49:22;19.60;47.40
61398;DHT22;47267;48.130;-2.040;2023-02-22T11:52:00;19.60;47.40
61398;DHT22;47267;48.130;-2.040;2023-02-22T12:00:14;19.70;47.50
61398;DHT22;47267;48.130;-2.040;2023-02-22T12:16:42;19.80;47.60
61398;DHT22;47267;48.130;-2.040;2023-02-22T12:22:50;19.80;47.60
61398;DHT22;47267;48.130;-2.040;2023-02-22T12:27:30;19.80;47.60
61398;DHT22;47267;48.130;-2.040;2023-02-22T12:32:35;19.80;47.60
61398;DHT22;47267;48.130;-2.040;2023-02-22T12:43:28;19.90;47.70
61398;DHT22;47267;48.130;-2.040;2023-02-22T12:49:02;19.90;47.70
61398;DHT22;47267;48.130;-2.040;2023-02-22T12:54:39;19.90;47.70
61398;DHT22;47267;48.130;-2.040;2023-02-22T12:57:39;19.90;47.70
61398;DHT22;47267;48.130;-2.040;2023-02-22T13:03:20;20.00;47.80
61398;DHT22;47267;48.130;-2.040;2023-02-22T13:05:59;20.00;47.80
61398;DHT22;47267;48.130;-2.040;2023-02-22T13:11:28;20.00;47.80
61398;DHT22;47267;48.130;-2.040;2023-02-22T13:16:39;20.00;47.80
61398;DHT22;47267;48.130;-2.040;2023-02-22T13:19:15;20.00;47.80
61398;DHT22;47267;48.130;-2.040;2023-02-22T13:22:00;20.00;47.80
61398;DHT22;47267;48.130;-2.040;2023-02-22T13:24:55;20.00;47.80
61398;DHT22;47267;48.130;-2.040;2023-02-22T13:30:02;20.10;47.80
61398;DHT22;47267;48.130;-2.040;2023-02-22T13:35:14;20.10;47.90
61398;DHT22;47267;48.130;-2.040;2023-02-22T13:40:47;20.10;47.90
61398;DHT22;47267;48.130;-2.040;2023-02-22T13:43:25;20.10;48.00
61398;DHT22;47267;48.130;-2.040;2023-02-22T13:46:32;20.10;47.90
61398;DHT22;47267;48.130;-2.040;2023-02-22T13:49:26;20.20;48.00
61398;DHT22;47267;48.130;-2.040;2023-02-22T13:51:57;20.20;47.90
61398;DHT22;47267;48.130;-2.040;2023-02-22T13:54:38;20.20;47.90
61398;DHT22;47267;48.130;-2.040;2023-02-22T13:57:27;20.20;47.90
61398;DHT22;47267;48.130;-2.040;2023-02-22T14:05:47;20.20;47.90
61398;DHT22;47267;48.130;-2.040;2023-02-22T14:13:23;20.20;48.00
61398;DHT22;47267;48.130;-2.040;2023-02-22T14:18:42;20.30;48.10
61398;DHT22;47267;48.130;-2.040;2023-02-22T14:21:21;20.30;48.10
61398;DHT22;47267;48.130;-2.040;2023-02-22T14:23:55;20.30;48.10
61398;DHT22;47267;48.130;-2.040;2023-02-22T14:26:34;20.30;48.10
61398;DHT22;47267;48.130;-2.040;2023-02-22T14:34:14;20.30;48.10
61398;DHT22;47267;48.130;-2.040;2023-02-22T14:42:17;20.30;48.10
61398;DHT22;47267;48.130;-2.040;2023-02-22T14:47:43;20.30;48.10
61398;DHT22;47267;48.130;-2.040;2023-02-22T14:50:22;20.40;48.20
61398;DHT22;47267;48.130;-2.040;2023-02-22T14:55:48;20.40;48.20
61398;DHT22;47267;48.130;-2.040;2023-02-22T14:58:39;20.40;48.20
61398;DHT22;47267;48.130;-2.040;2023-02-22T15:01:22;20.40;48.20
61398;DHT22;47267;48.130;-2.040;2023-02-22T15:03:48;20.40;48.20
61398;DHT22;47267;48.130;-2.040;2023-02-22T15:06:23;20.40;48.20
61398;DHT22;47267;48.130;-2.040;2023-02-22T15:09:12;20.50;48.30
61398;DHT22;47267;48.130;-2.040;2023-02-22T15:11:40;20.50;48.30
61398;DHT22;47267;48.130;-2.040;2023-02-22T15:14:19;20.50;48.30
61398;DHT22;47267;48.130;-2.040;2023-02-22T15:16:52;20.50;48.20
61398;DHT22;47267;48.130;-2.040;2023-02-22T15:19:27;20.50;48.20
61398;DHT22;47267;48.130;-2.040;2023-02-22T15:21:55;20.50;48.20
61398;DHT22;47267;48.130;-2.040;2023-02-22T15:24:27;20.50;48.20
61398;DHT22;47267;48.130;-2.040;2023-02-22T15:26:54;20.50;48.20
61398;DHT22;47267;48.130;-2.040;2023-02-22T15:29:23;20.50;48.10
61398;DHT22;47267;48.130;-2.040;2023-02-22T15:31:50;20.60;48.30
61398;DHT22;47267;48.130;-2.040;2023-02-22T15:34:26;20.60;48.20
61398;DHT22;47267;48.130;-2.040;2023-02-22T15:36:54;20.60;48.20
61398;DHT22;47267;48.130;-2.040;2023-02-22T15:39:32;20.60;48.20
61398;DHT22;47267;48.130;-2.040;2023-02-22T15:42:12;20.60;48.20
61398;DHT22;47267;48.130;-2.040;2023-02-22T15:44:51;20.60;48.20
61398;DHT22;47267;48.130;-2.040;2023-02-22T15:47:20;20.60;48.20
61398;DHT22;47267;48.130;-2.040;2023-02-22T15:50:12;20.60;48.20
61398;DHT22;47267;48.130;-2.040;2023-02-22T15:52:47;20.60;48.20
61398;DHT22;47267;48.130;-2.040;2023-02-22T15:55:15;20.60;48.20
61398;DHT22;47267;48.130;-2.040;2023-02-22T15:57:41;20.60;48.20
61398;DHT22;47267;48.130;-2.040;2023-02-22T16:00:22;20.70;48.30
61398;DHT22;47267;48.130;-2.040;2023-02-22T16:02:48;20.70;48.20
61398;DHT22;47267;48.130;-2.040;2023-02-22T16:05:16;20.70;48.30
61398;DHT22;47267;48.130;-2.040;2023-02-22T16:08:01;20.70;48.30
61398;DHT22;47267;48.130;-2.040;2023-02-22T16:10:29;20.70;48.30
61398;DHT22;47267;48.130;-2.040;2023-02-22T16:13:18;20.70;48.30
61398;DHT22;47267;48.130;-2.040;2023-02-22T16:16:02;20.70;48.30
61398;DHT22;47267;48.130;-2.040;2023-02-22T16:18:32;20.70;48.30
61398;DHT22;47267;48.130;-2.040;2023-02-22T16:21:11;20.70;48.30
61398;DHT22;47267;48.130;-2.040;2023-02-22T16:23:50;20.70;48.30
61398;DHT22;47267;48.130;-2.040;2023-02-22T16:28:54;20.70;48.30
61398;DHT22;47267;48.130;-2.040;2023-02-22T16:31:26;20.70;48.30
61398;DHT22;47267;48.130;-2.040;2023-02-22T16:33:52;20.70;48.20
61398;DHT22;47267;48.130;-2.040;2023-02-22T16:36:21;20.70;48.30
61398;DHT22;47267;48.130;-2.040;2023-02-22T16:38:47;20.70;48.20
61398;DHT22;47267;48.130;-2.040;2023-02-22T16:41:17;20.70;48.20
61398;DHT22;47267;48.130;-2.040;2023-02-22T16:43:48;20.70;48.20
61398;DHT22;47267;48.130;-2.040;2023-02-22T16:46:16;20.70;48.30
61398;DHT22;47267;48.130;-2.040;2023-02-22T16:48:43;20.70;48.20
61398;DHT22;47267;48.130;-2.040;2023-02-22T16:53:45;20.80;48.30
61398;DHT22;47267;48.130;-2.040;2023-02-22T16:56:14;20.80;48.30
61398;DHT22;47267;48.130;-2.040;2023-02-22T16:58:41;20.80;48.30
61398;DHT22;47267;48.130;-2.040;2023-02-22T17:01:08;20.80;48.30
61398;DHT22;47267;48.130;-2.040;2023-02-22T17:03:34;20.80;48.30
61398;DHT22;47267;48.130;-2.040;2023-02-22T17:06:00;20.80;48.30
61398;DHT22;47267;48.130;-2.040;2023-02-22T17:08:27;20.80;48.20
61398;DHT22;47267;48.130;-2.040;2023-02-22T17:10:54;20.80;48.30
61398;DHT22;47267;48.130;-2.040;2023-02-22T17:13:24;20.80;48.20
61398;DHT22;47267;48.130;-2.040;2023-02-22T17:15:50;20.80;48.20
61398;DHT22;47267;48.130;-2.040;2023-02-22T17:18:18;20.80;48.20
61398;DHT22;47267;48.130;-2.040;2023-02-22T17:20:48;20.80;48.20
61398;DHT22;47267;48.130;-2.040;2023-02-22T17:23:14;20.80;48.20
61398;DHT22;47267;48.130;-2.040;2023-02-22T17:25:43;20.70;48.20
61398;DHT22;47267;48.130;-2.040;2023-02-22T17:28:09;20.70;48.10
61398;DHT22;47267;48.130;-2.040;2023-02-22T17:30:35;20.70;48.10
61398;DHT22;47267;48.130;-2.040;2023-02-22T17:33:04;20.70;48.10
61398;DHT22;47267;48.130;-2.040;2023-02-22T17:35:32;20.70;48.10
61398;DHT22;47267;48.130;-2.040;2023-02-22T17:37:59;20.70;48.10
61398;DHT22;47267;48.130;-2.040;2023-02-22T17:40:26;20.70;48.10
61398;DHT22;47267;48.130;-2.040;2023-02-22T17:42:52;20.70;48.10
61398;DHT22;47267;48.130;-2.040;2023-02-22T17:45:23;20.70;48.10
61398;DHT22;47267;48.130;-2.040;2023-02-22T17:47:50;20.70;48.10
61398;DHT22;47267;48.130;-2.040;2023-02-22T17:50:17;20.60;48.00
61398;DHT22;47267;48.130;-2.040;2023-02-22T17:52:44;20.60;48.00
61398;DHT22;47267;48.130;-2.040;2023-02-22T17:55:11;20.60;48.00
61398;DHT22;47267;48.130;-2.040;2023-02-22T17:57:38;20.60;47.90
61398;DHT22;47267;48.130;-2.040;2023-02-22T18:00:08;20.60;48.00